Drachten Airfield

EHDR · Friesland, 荷兰

罗盘
风向 的 风向 的 风向 到 风向 040° Drachten Airfield 7/25
风: 10 kt, 3 beaufort

8 kt

6 kt
改变
0 1.000 2.000 3.000 4.000 5.000
SCT 400 ft
BKN 500 ft
OVC 700 ft
SPECI EHLW 051325Z AUTO 04010KT 350V110 5000 -DZ SCT004 BKN005 OVC007 06/05 Q1020 YLO TEMPO 4500 DZ SCT005 BKN006

METAR Drachten Airfield - EHDR

Drachten Airfield是,荷兰中的小机场。 该机场有一条跑道: 7/25. 该领域的国际民航组织标志是EHDR.

这份报告是针对2022年12月5日 14:25, 当地时间在Leeuwarden Air Base进行的。

机场观察

风向为040°,速度为10 kt。 风向在350°和110°之间变化。

可见度为5 km。

有疏云,零星散落的云朵在400 ft的高度, 碎云在500 ft的高度 和 乌云密布在700 ft的高度。 破损或更高的上限为500 ft。

当前天气为光 细雨。 温度为6 °C,阵风为1 °C。 露点为5 °C,相对湿度为93%。 海平面上的气压为1020 hPa (QNH)。

发展趋势

  • 暂时的

    可变方向的风很小或没有。 可见性变为4,5 km。 重大天气:细雨。 疏云,零星散落的云朵在500 ft的高度 和 碎云在600 ft的高度.

白天

今天,太阳从08:32升起,在16:20降落。 这适用于Drachten Airfield,世界夏令时可能有所不同。 当地时间与世界标准时间之间的时差为+1 小时。 当前,没有夏令时有效。

公司介绍

我们没有关于这个机场的公司信息。

体会

到Vliegles.nl去找飞行课程,跳伞和其他飞行体验。 浏览页面,了解Drachten Airfield附近所有可用的活动。 你也可以使用搜索功能来寻找你所在地附近的特定飞行课程、跳伞或其他飞行体验。

跑道

Id 标题 侧风 逆风 侧风 %
7/25 074°-254° 6 kt 8 kt 56 %

逆风成分最大的方向会被突出显示,并用于横风计算。 这并不一定意味着这个方向在使用。

乌云

400 ft SCT 疏云,零星散落的云朵
500 ft BKN 碎云
700 ft OVC 乌云密布
500 ft SCT 暂时的 疏云,零星散落的云朵
600 ft BKN 暂时的 碎云

温度 & 天气

天气 光 细雨
温度 6 °C
露点 5 °C
相对湿度 93%
风寒 1 °C
Kp-index 2 (0-9)

白天

日出
08:34
中午
12:27
日落
16:20 (1:36)

小工具

你想在你的网站上有一个关于Drachten Airfield的当前航空天气(METAR)的小部件吗?

显示HTML代码

我们和第三方通过cookies跟踪您在我们网站上的互联网行为。如果你继续,我们认为你同意我们的饼干政策